AirNav   Pilot Hours Calculator
 
 1761 users online  

8NC2 Twin Airpark
Caroleen, North Carolina, USA

GOING TO CAROLEEN?


FAA INFORMATION EFFECTIVE 21 APRIL 2022

Location

FAA Identifier: 8NC2
Lat/Long: 35-17-21.4420N 081-47-06.3620W
35-17.357367N 081-47.106033W
35.2892894,-81.7851006
(estimated)
Elevation: 1000 ft. / 305 m (estimated)
Variation: 04W (1985)
From city: 2 miles SW of CAROLEEN, NC
Time zone: UTC -4 (UTC -5 during Standard Time)
Zip code: 28019

Airport Operations

Airport use: Private use. Permission required prior to landing
Activation date: 04/1991
Control tower: no
ARTCC: ATLANTA CENTER
FSS: RALEIGH FLIGHT SERVICE STATION
Attendance: UNATNDD
Wind indicator: yes
Segmented circle: no

Airport Communications

WX AWOS-3 at EHO (9 nm E): 118.425 (704-487-0100)
WX AWOS-3 at FQD (11 nm NW): 118.275 (828-287-6498)

Nearby radio navigation aids

VOR radial/distance  VOR name  Freq  Var
SPAr026/16.8SPARTANBURG VORTAC115.7002W
SUGr109/24.7SUGARLOAF MOUNTAIN VORTAC112.2002W

 
NDB name  Hdg/Dist  Freq  Var  ID
FIRST RIVER290/9.441706WSLP ... .-.. .--.
FIDDLERS199/25.939107WFIQ ..-. .. --.-
STONIA287/31.326006WGHJ --. .... .---
BROAD RIVER095/33.637907WBRA -... .-. .-
UNION COUNTY355/37.032606WUOT ..- --- -

Airport Services

Runway Information

Runway 14/32

Dimensions: 2500 x 120 ft. / 762 x 37 m
Surface: turf
RUNWAY 14  RUNWAY 32
Traffic pattern: leftleft
Obstructions: 50 ft. pline, 200 ft. from runwaynone

Airport Ownership and Management from official FAA records

Ownership: Privately-owned
Owner: TAM MINH PHAN
5611 THOMPSON RD
CHARLOTTE, NC 28216
Phone 704-819-3766
Manager: TAM MINH PHAN
5611 THOMPSON RD
CHARLOTTE, NC 28216
Phone 704-819-3766

Airport Operational Statistics

Aircraft based on the field: 18
Single engine airplanes: 18
    

Additional Remarks

FOR CD CTC ATLANTA ARTCC AT 770-210-7692.

Instrument Procedures

There are no published instrument procedures at 8NC2.

Some nearby airports with instrument procedures:

KEHO - Shelby-Cleveland County Regional Airport (9 nm E)
KFQD - Rutherford County Airport/Marchman Field (11 nm NW)
KSPA - Spartanburg Downtown Memorial Airport/Simpson Field (24 nm S)
KAKH - Gastonia Municipal Airport (32 nm E)
KGSP - Greenville Spartanburg International Airport (32 nm SW)
 
Loc | Ops | Rwys | IFR | FBO | Links
Com | Nav | Svcs | Stats | Notes
Area around 8NC2 (Twin Airpark)
 
Road maps at: MapQuest Bing Google
 
Aerial photo
WARNING: Photo may not be current or correct
Aerial photo of 8NC2 (Twin Airpark)
Taken in September 2005

Do you have a better or more recent aerial photo of Twin Airpark that you would like to share? If so, please send us your photo.

 
Sectional chart

 
Airport distance calculator
Flying to Twin Airpark? Find the distance to fly.

From to 8NC2

Sunrise and sunset
Times for 18-May-2022
 Local
(UTC-4)
 Zulu
(UTC)
Morning civil twilight05:5309:53
Sunrise06:2210:22
Sunset20:2500:25
Evening civil twilight20:5400:54

Current date and time
Zulu (UTC)  18-May-2022 18:49:56
Local (UTC-4)  18-May-2022 14:49:56
 
METAR
KEHO 
9nm E 
181835Z AUTO 21010G17KT 10SM CLR 29/11 A2999 RMK AO2 T02880107
KFQD 
11nm NW 
181835Z AUTO 19014G19KT 10SM CLR 28/11 A3001 RMK AO2
KSPA 
17nm SW 
181835Z AUTO 21004KT 10SM CLR 29/10 A3000 RMK AO2
TAF
KGSP 
32nm SW 
181735Z 1818/1918 20011KT P6SM SCT250 FM182300 20007KT P6SM FEW100 BKN250 FM191100 24007KT P6SM FEW100 BKN250 FM191600 24011G19KT P6SM SCT060 BKN250
KHKY 
34nm NE 
181735Z 1818/1918 21009KT P6SM FEW100 SCT250 FM190100 22006KT P6SM SCT100 BKN250 FM191600 24010KT P6SM SCT060 BKN100 PROB30 1916/1918 4SM TSRA BR BKN040CB
KAVL 
38nm W 
181735Z 1818/1918 18010G18KT P6SM FEW100 BKN250 FM182300 18005KT P6SM SCT100 BKN250 FM190900 34007KT P6SM SCT050 BKN100 FM191600 32010G18KT P6SM SCT040 BKN100 PROB30 1916/1918 4SM TSRA BR BKN040CB
KGMU 
38nm SW 
181735Z 1818/1918 20011KT P6SM SCT250 FM182300 20007KT P6SM FEW100 BKN250 FM191100 24007KT P6SM FEW100 BKN250 FM191600 24011G19KT P6SM SCT060 BKN250
NOTAMs
Click for the latest NOTAMs
NOTAMs are issued by the DoD/FAA and will open in a separate window not controlled by AirNav.

 

 
 

Would you like to see your business listed on this page?

 If your business provides an interesting product or service to pilots, flight crews, aircraft, or users of the Twin Airpark, you should consider listing it here.  To start the listing process, click on the button below
 
Add a business
 

Other Pages about Twin Airpark

Update a link
 
Copyright © AirNav, LLC. All rights reserved. Privacy Policy  Contact